createdAt,value
2024-02-19T00:00:57.035Z,49.51
2024-02-19T00:03:25.084Z,49.56
2024-02-19T00:05:52.904Z,49.53
2024-02-19T00:08:20.802Z,49.50
2024-02-19T00:10:48.802Z,49.49
2024-02-19T00:13:17.070Z,49.43
2024-02-19T00:15:44.936Z,49.43
2024-02-19T00:18:12.889Z,49.41
2024-02-19T00:20:40.698Z,49.45
2024-02-19T00:23:08.530Z,49.46
2024-02-19T00:25:39.980Z,49.65
2024-02-19T00:28:07.653Z,49.84
2024-02-19T00:30:35.367Z,49.90
2024-02-19T00:33:03.160Z,50.03
2024-02-19T00:35:31.581Z,50.10
2024-02-19T00:37:59.932Z,50.20
2024-02-19T00:40:27.567Z,50.13
2024-02-19T00:42:55.102Z,50.03
2024-02-19T00:45:22.750Z,50.14
2024-02-19T00:47:50.540Z,50.06
2024-02-19T00:50:18.540Z,50.11
2024-02-19T00:52:46.211Z,50.19
2024-02-19T00:55:13.782Z,50.16
2024-02-19T00:57:41.546Z,50.16
2024-02-19T01:00:09.798Z,50.36
2024-02-19T01:02:37.500Z,50.58
2024-02-19T01:05:06.606Z,50.60
2024-02-19T01:07:34.327Z,50.83
2024-02-19T01:10:02.065Z,51.01
2024-02-19T01:12:29.954Z,51.19
2024-02-19T01:14:57.453Z,51.43
2024-02-19T01:17:25.564Z,51.57
2024-02-19T01:19:54.096Z,51.69
2024-02-19T01:22:21.921Z,51.88
2024-02-19T01:24:50.385Z,52.08
2024-02-19T01:27:17.977Z,52.13
2024-02-19T01:29:47.073Z,52.17
2024-02-19T01:32:14.941Z,52.17
2024-02-19T01:34:42.675Z,52.38
2024-02-19T01:37:10.733Z,52.50
2024-02-19T01:39:38.492Z,52.55
2024-02-19T01:42:06.611Z,52.58
2024-02-19T01:44:38.534Z,52.57
2024-02-19T01:47:06.136Z,52.69
2024-02-19T01:49:34.744Z,52.80
2024-02-19T01:52:02.520Z,53.07
2024-02-19T01:54:30.255Z,53.17
2024-02-19T01:56:57.921Z,53.25
2024-02-19T01:59:25.470Z,53.27
2024-02-19T02:01:54.785Z,53.40
2024-02-19T02:04:22.587Z,53.39
2024-02-19T02:06:50.293Z,53.32
2024-02-19T02:09:17.923Z,53.16
2024-02-19T02:11:45.526Z,53.07
2024-02-19T02:14:13.193Z,53.00
2024-02-19T02:16:40.748Z,52.98
2024-02-19T02:19:08.511Z,53.18
2024-02-19T02:21:41.694Z,53.23
2024-02-19T02:24:09.467Z,53.20
2024-02-19T02:26:41.484Z,53.33
2024-02-19T02:29:09.044Z,53.38
2024-02-19T02:31:36.655Z,53.41
2024-02-19T02:34:06.579Z,53.38
2024-02-19T02:36:34.740Z,53.26
2024-02-19T02:39:02.781Z,53.24
2024-02-19T02:41:31.500Z,53.12
2024-02-19T02:43:59.268Z,53.20
2024-02-19T02:46:27.045Z,53.40
2024-02-19T02:48:55.127Z,53.44
2024-02-19T02:51:22.970Z,53.51
2024-02-19T02:53:50.733Z,53.48
2024-02-19T02:56:21.788Z,53.67
2024-02-19T02:58:49.545Z,53.97
2024-02-19T03:01:18.952Z,54.19
2024-02-19T03:03:46.804Z,54.28
2024-02-19T03:06:14.678Z,54.34
2024-02-19T03:08:42.547Z,54.36
2024-02-19T03:11:10.345Z,54.33
2024-02-19T03:13:38.893Z,54.30
2024-02-19T03:16:07.030Z,54.43
2024-02-19T03:18:38.600Z,54.44
2024-02-19T03:21:09.440Z,54.50
2024-02-19T03:23:37.123Z,54.40
2024-02-19T03:26:05.942Z,54.34
2024-02-19T03:28:34.496Z,54.30
2024-02-19T03:31:02.221Z,54.50
2024-02-19T03:33:30.003Z,54.68
2024-02-19T03:35:57.891Z,54.92
2024-02-19T03:38:26.006Z,55.05
2024-02-19T03:40:53.733Z,55.34
2024-02-19T03:43:21.443Z,55.41
2024-02-19T03:45:52.012Z,55.50
2024-02-19T03:48:19.615Z,55.39
2024-02-19T03:50:47.446Z,55.19
2024-02-19T03:53:15.213Z,55.17
2024-02-19T03:55:42.908Z,54.98
2024-02-19T03:58:10.671Z,54.72
2024-02-19T04:00:38.292Z,54.55
2024-02-19T04:03:06.576Z,54.53
2024-02-19T04:05:34.798Z,54.61
2024-02-19T04:08:02.421Z,54.52
2024-02-19T04:10:30.078Z,54.49
2024-02-19T04:12:57.645Z,54.63
2024-02-19T04:15:25.301Z,54.81
2024-02-19T04:17:52.894Z,54.99
2024-02-19T04:20:20.884Z,55.11
2024-02-19T04:22:48.594Z,55.28
2024-02-19T04:25:16.426Z,55.41
2024-02-19T04:27:44.370Z,55.31
2024-02-19T04:30:13.424Z,55.14
2024-02-19T04:32:41.183Z,55.03
2024-02-19T04:35:09.646Z,54.93
2024-02-19T04:37:37.432Z,54.82
2024-02-19T04:40:05.934Z,54.67
2024-02-19T04:42:34.560Z,54.71
2024-02-19T04:45:02.180Z,54.61
2024-02-19T04:47:29.832Z,54.60
2024-02-19T04:49:57.672Z,54.51
2024-02-19T04:52:25.539Z,54.41
2024-02-19T04:54:53.253Z,54.46
2024-02-19T04:57:21.595Z,54.48
2024-02-19T04:59:49.161Z,54.55
2024-02-19T05:02:16.938Z,54.61
2024-02-19T05:04:44.804Z,54.67
2024-02-19T05:07:12.638Z,54.41
2024-02-19T05:09:40.738Z,54.21
2024-02-19T05:12:08.543Z,54.18
2024-02-19T05:14:36.156Z,54.13
2024-02-19T05:17:04.689Z,53.95
2024-02-19T05:19:32.435Z,53.96
2024-02-19T05:22:00.221Z,53.85
2024-02-19T05:24:27.928Z,53.71
2024-02-19T05:26:55.611Z,53.57
2024-02-19T05:29:23.768Z,53.49
2024-02-19T05:31:53.043Z,53.43
2024-02-19T05:34:21.175Z,53.51
2024-02-19T05:36:48.888Z,53.49
2024-02-19T05:39:16.670Z,53.54
2024-02-19T05:41:45.065Z,53.39
2024-02-19T05:44:12.734Z,53.42
2024-02-19T05:46:40.373Z,53.37
2024-02-19T05:49:08.065Z,53.27
2024-02-19T05:51:35.799Z,53.39
2024-02-19T05:54:03.485Z,53.47
2024-02-19T05:56:31.135Z,53.24
2024-02-19T05:58:59.052Z,52.99
2024-02-19T06:01:26.924Z,52.89
2024-02-19T06:03:54.780Z,52.75
2024-02-19T06:06:22.527Z,52.60
2024-02-19T06:08:50.263Z,52.42
2024-02-19T06:11:18.078Z,52.33
2024-02-19T06:13:45.727Z,52.56
2024-02-19T06:16:13.256Z,52.52
2024-02-19T06:18:40.977Z,52.21
2024-02-19T06:21:08.744Z,52.08
2024-02-19T06:23:36.333Z,52.01
2024-02-19T06:26:04.047Z,51.96
2024-02-19T06:28:31.609Z,52.03
2024-02-19T06:30:59.247Z,52.04
2024-02-19T06:33:27.179Z,52.20
2024-02-19T06:35:54.793Z,52.02
2024-02-19T06:38:22.612Z,51.95
2024-02-19T06:40:50.280Z,51.76
2024-02-19T06:43:20.077Z,51.55
2024-02-19T06:45:47.842Z,51.25
2024-02-19T06:48:15.697Z,50.91
2024-02-19T06:51:32.332Z,51.54
2024-02-19T06:54:00.390Z,50.60
2024-02-19T06:56:28.340Z,50.04
2024-02-19T06:58:56.042Z,49.78
2024-02-19T07:01:24.160Z,49.62
2024-02-19T07:03:52.075Z,49.42
2024-02-19T07:06:19.985Z,49.26
2024-02-19T07:08:48.643Z,49.28
2024-02-19T07:11:16.327Z,49.13
2024-02-19T07:13:44.698Z,48.97
2024-02-19T07:16:12.363Z,48.80
2024-02-19T07:18:40.138Z,48.68
2024-02-19T07:21:07.862Z,48.75
2024-02-19T07:23:35.657Z,48.69
2024-02-19T07:26:03.339Z,48.59
2024-02-19T07:28:31.172Z,48.36
2024-02-19T07:30:58.881Z,48.13
2024-02-19T07:33:28.984Z,48.14
2024-02-19T07:35:57.014Z,48.13
2024-02-19T07:38:24.794Z,47.90
2024-02-19T07:40:52.834Z,47.77
2024-02-19T07:43:20.598Z,47.71
2024-02-19T07:45:48.546Z,47.56
2024-02-19T07:48:16.263Z,47.33
2024-02-19T07:50:43.984Z,47.35
2024-02-19T07:53:12.513Z,47.17
2024-02-19T07:55:41.223Z,47.01
2024-02-19T07:58:09.726Z,46.96
2024-02-19T08:00:37.325Z,46.98
2024-02-19T08:03:05.094Z,46.80
2024-02-19T08:05:32.785Z,46.68
2024-02-19T08:08:00.610Z,46.39
2024-02-19T08:10:28.420Z,46.10
2024-02-19T08:12:56.274Z,45.91
2024-02-19T08:15:25.237Z,45.88
2024-02-19T08:17:52.890Z,45.90
2024-02-19T08:20:20.665Z,45.36
2024-02-19T08:22:48.238Z,44.62
2024-02-19T08:25:16.529Z,44.48
2024-02-19T08:27:44.258Z,44.62
2024-02-19T08:30:12.256Z,44.37
2024-02-19T08:32:39.805Z,43.99
2024-02-19T08:35:08.141Z,44.10
2024-02-19T08:37:36.008Z,43.53
2024-02-19T08:40:04.876Z,42.87
2024-02-19T08:42:32.759Z,41.89
2024-02-19T08:45:00.405Z,41.78
2024-02-19T08:47:28.092Z,41.52
2024-02-19T08:49:55.923Z,41.35
2024-02-19T08:52:23.850Z,41.15
2024-02-19T08:54:51.657Z,41.22
2024-02-19T08:57:19.199Z,40.72
2024-02-19T08:59:47.485Z,40.73
2024-02-19T09:02:15.281Z,40.76
2024-02-19T09:04:44.093Z,40.38
2024-02-19T09:07:13.986Z,39.88
2024-02-19T09:09:45.711Z,39.20
2024-02-19T09:12:13.556Z,38.74
2024-02-19T09:14:41.215Z,38.64
2024-02-19T09:17:08.780Z,38.58
2024-02-19T09:19:36.705Z,38.10
2024-02-19T09:22:04.744Z,37.63
2024-02-19T09:24:33.107Z,37.26
2024-02-19T09:27:00.809Z,36.78
2024-02-19T09:29:29.822Z,36.57
2024-02-19T09:31:58.456Z,35.20
2024-02-19T09:34:26.149Z,35.05
2024-02-19T09:36:53.942Z,34.68
2024-02-19T09:39:21.630Z,34.69
2024-02-19T09:41:49.291Z,34.40
2024-02-19T09:44:16.961Z,33.23
2024-02-19T09:46:46.613Z,32.53
2024-02-19T09:49:14.326Z,32.70
2024-02-19T09:51:46.298Z,33.03
2024-02-19T09:54:14.464Z,32.77
2024-02-19T09:56:42.178Z,31.97
2024-02-19T09:59:09.788Z,31.33
2024-02-19T10:01:37.527Z,31.35
2024-02-19T10:04:08.573Z,30.82
2024-02-19T10:06:37.783Z,30.95
2024-02-19T10:09:08.655Z,31.09
2024-02-19T10:11:36.986Z,31.29
2024-02-19T10:14:05.606Z,31.55
2024-02-19T10:16:33.543Z,31.06
2024-02-19T10:19:08.456Z,30.58
2024-02-19T10:21:36.477Z,30.51
2024-02-19T10:24:04.622Z,30.35
2024-02-19T10:26:32.577Z,30.23
2024-02-19T10:29:00.137Z,30.62
2024-02-19T10:31:27.831Z,30.63
2024-02-19T10:33:55.958Z,30.70
2024-02-19T10:36:24.554Z,30.55
2024-02-19T10:38:52.480Z,30.61
2024-02-19T10:41:22.417Z,30.50
2024-02-19T10:43:51.008Z,30.68
2024-02-19T10:46:22.017Z,31.13
2024-02-19T10:48:51.264Z,31.22
2024-02-19T10:51:23.683Z,31.23
2024-02-19T10:54:02.298Z,31.05
2024-02-19T10:56:41.227Z,31.24
2024-02-19T10:59:09.459Z,31.05
2024-02-19T11:01:48.840Z,31.44
2024-02-19T11:04:17.247Z,31.87
2024-02-19T11:06:56.437Z,32.22
2024-02-19T11:09:30.490Z,32.16
2024-02-19T11:12:00.351Z,32.25
2024-02-19T11:14:30.283Z,32.05
2024-02-19T11:17:00.828Z,31.75
2024-02-19T11:19:29.188Z,32.01
2024-02-19T11:22:09.779Z,32.34
2024-02-19T11:24:37.682Z,32.28
2024-02-19T11:27:06.315Z,32.07
2024-02-19T11:29:43.292Z,32.27
2024-02-19T11:32:20.778Z,32.04
2024-02-19T11:34:51.742Z,32.13
2024-02-19T11:37:20.364Z,32.37
2024-02-19T11:39:48.400Z,32.16
2024-02-19T11:42:17.028Z,31.67
2024-02-19T11:44:46.771Z,31.44
2024-02-19T11:47:15.839Z,31.82
2024-02-19T11:49:44.300Z,32.07
2024-02-19T11:52:13.497Z,32.08
2024-02-19T11:54:42.333Z,31.97
2024-02-19T11:57:10.859Z,32.10
2024-02-19T11:59:38.802Z,32.03
2024-02-19T12:02:08.005Z,32.07
2024-02-19T12:04:39.107Z,32.23
2024-02-19T12:07:10.638Z,32.55
2024-02-19T12:09:38.828Z,32.61
2024-02-19T12:12:06.934Z,32.41
2024-02-19T12:14:34.810Z,32.22
2024-02-19T12:17:04.893Z,32.09
2024-02-19T12:19:33.044Z,32.05
2024-02-19T12:22:01.088Z,32.04
2024-02-19T12:24:28.738Z,31.80
2024-02-19T12:26:56.498Z,31.82
2024-02-19T12:29:24.154Z,31.32
2024-02-19T12:31:51.939Z,31.73
2024-02-19T12:34:19.667Z,31.98
2024-02-19T12:36:47.719Z,32.42
2024-02-19T12:39:15.525Z,32.36
2024-02-19T12:41:45.005Z,31.91
2024-02-19T12:44:12.994Z,31.41
2024-02-19T12:46:42.242Z,31.52
2024-02-19T12:49:10.281Z,31.42
2024-02-19T12:51:38.955Z,31.12
2024-02-19T12:54:06.851Z,30.80
2024-02-19T12:56:34.482Z,30.90
2024-02-19T12:59:02.142Z,30.85
2024-02-19T13:01:32.938Z,30.81
2024-02-19T13:04:03.055Z,29.96
2024-02-19T13:06:31.670Z,28.99
2024-02-19T13:09:00.252Z,27.97
2024-02-19T13:11:29.405Z,26.81
2024-02-19T13:13:58.675Z,25.26
2024-02-19T13:16:26.576Z,23.81
2024-02-19T13:18:54.564Z,23.06
2024-02-19T13:21:22.388Z,22.26
2024-02-19T13:23:51.141Z,21.82
2024-02-19T13:26:19.133Z,21.16
2024-02-19T13:28:46.802Z,20.44
2024-02-19T13:31:14.628Z,20.17
2024-02-19T13:33:43.281Z,19.59
2024-02-19T13:36:11.022Z,19.17
2024-02-19T13:38:39.793Z,18.86
2024-02-19T13:41:07.949Z,18.60
2024-02-19T13:43:35.835Z,18.72
2024-02-19T13:46:05.355Z,18.28
2024-02-19T13:48:34.495Z,18.72
2024-02-19T13:51:02.770Z,18.98
2024-02-19T13:53:31.329Z,19.21
2024-02-19T13:55:59.794Z,19.19
2024-02-19T13:58:29.061Z,19.35
2024-02-19T14:00:59.377Z,19.58
2024-02-19T14:03:27.599Z,19.56
2024-02-19T14:05:55.403Z,19.81
2024-02-19T14:08:23.154Z,19.88
2024-02-19T14:10:53.309Z,20.30
2024-02-19T14:13:21.386Z,20.59
2024-02-19T14:15:49.170Z,21.22
2024-02-19T14:18:17.347Z,21.62
2024-02-19T14:20:45.145Z,22.08
2024-02-19T14:23:13.944Z,22.90
2024-02-19T14:25:43.708Z,23.24
2024-02-19T14:28:11.818Z,23.40
2024-02-19T14:30:39.584Z,23.74
2024-02-19T14:33:07.522Z,23.73
2024-02-19T14:35:35.417Z,23.90
2024-02-19T14:38:04.340Z,24.34
2024-02-19T14:40:38.229Z,24.92
2024-02-19T14:43:06.181Z,25.51
2024-02-19T14:45:34.083Z,26.00
2024-02-19T14:48:02.620Z,26.49
2024-02-19T14:50:30.651Z,26.86
2024-02-19T14:52:58.616Z,27.13
2024-02-19T14:55:26.393Z,27.61
2024-02-19T14:57:54.882Z,27.95
2024-02-19T15:00:22.974Z,28.33
2024-02-19T15:02:52.147Z,28.61
2024-02-19T15:05:20.615Z,28.91
2024-02-19T15:07:55.746Z,29.34
2024-02-19T15:10:29.233Z,29.77
2024-02-19T15:12:58.050Z,29.99
2024-02-19T15:15:26.461Z,29.95
2024-02-19T15:17:54.361Z,30.15
2024-02-19T15:20:23.195Z,30.36
2024-02-19T15:22:51.900Z,30.66
2024-02-19T15:25:20.780Z,31.13
2024-02-19T15:27:49.517Z,31.38
2024-02-19T15:30:17.233Z,31.68
2024-02-19T15:32:44.940Z,31.97
2024-02-19T15:35:13.783Z,32.44
2024-02-19T15:37:41.860Z,32.55
2024-02-19T15:40:10.978Z,32.83
2024-02-19T15:42:39.388Z,33.04
2024-02-19T15:45:08.050Z,33.50
2024-02-19T15:47:35.804Z,33.79
2024-02-19T15:50:05.145Z,33.87
2024-02-19T15:52:33.092Z,33.90
2024-02-19T15:55:00.789Z,33.97
2024-02-19T15:57:29.432Z,34.52
2024-02-19T15:59:57.069Z,34.83
2024-02-19T16:02:24.734Z,34.97
2024-02-19T16:04:52.477Z,35.24
2024-02-19T16:07:23.445Z,35.80
2024-02-19T16:09:52.786Z,36.53
2024-02-19T16:12:20.708Z,36.94
2024-02-19T16:14:48.693Z,37.23
2024-02-19T16:17:17.839Z,37.40
2024-02-19T16:19:46.754Z,37.62
2024-02-19T16:22:16.173Z,37.47
2024-02-19T16:24:43.869Z,37.38
2024-02-19T16:27:11.652Z,37.38
2024-02-19T16:29:39.208Z,37.12
2024-02-19T16:32:07.422Z,36.95
2024-02-19T16:34:35.357Z,36.85
2024-02-19T16:37:03.090Z,36.89
2024-02-19T16:39:30.702Z,36.95
2024-02-19T16:41:58.380Z,36.88
2024-02-19T16:44:26.690Z,37.05
2024-02-19T16:46:54.436Z,37.17
2024-02-19T16:49:22.463Z,37.18
2024-02-19T16:51:50.222Z,37.10
2024-02-19T16:54:21.424Z,37.19
2024-02-19T16:56:49.489Z,37.20
2024-02-19T16:59:17.342Z,37.19
2024-02-19T17:01:46.975Z,37.17
2024-02-19T17:04:15.066Z,37.41
2024-02-19T17:06:45.164Z,37.61
2024-02-19T17:09:13.112Z,37.85
2024-02-19T17:11:40.944Z,38.04
2024-02-19T17:14:09.377Z,38.28
2024-02-19T17:16:37.230Z,38.50
2024-02-19T17:19:05.868Z,38.68
2024-02-19T17:21:33.479Z,38.78
2024-02-19T17:24:01.195Z,38.78
2024-02-19T17:26:29.288Z,38.85
2024-02-19T17:28:56.909Z,38.89
2024-02-19T17:31:28.448Z,38.96
2024-02-19T17:33:56.350Z,39.17
2024-02-19T17:36:24.134Z,39.16
2024-02-19T17:38:51.761Z,39.31
2024-02-19T17:41:19.485Z,39.50
2024-02-19T17:43:48.591Z,39.57
2024-02-19T17:46:17.129Z,39.66
2024-02-19T17:48:46.319Z,39.77
2024-02-19T17:51:20.645Z,40.03
2024-02-19T17:53:52.853Z,40.00
2024-02-19T17:56:20.362Z,39.94
2024-02-19T17:58:48.096Z,39.93
2024-02-19T18:01:15.996Z,39.89
2024-02-19T18:03:44.926Z,40.00
2024-02-19T18:06:13.413Z,39.86
2024-02-19T18:08:40.984Z,39.76
2024-02-19T18:11:12.508Z,39.86
2024-02-19T18:13:40.264Z,39.74
2024-02-19T18:16:08.110Z,39.78
2024-02-19T18:18:36.003Z,39.83
2024-02-19T18:21:04.716Z,39.93
2024-02-19T18:23:33.191Z,40.19
2024-02-19T18:26:02.332Z,40.25
2024-02-19T18:28:31.860Z,40.53
2024-02-19T18:31:02.015Z,40.51
2024-02-19T18:33:29.897Z,40.34
2024-02-19T18:35:57.490Z,40.28
2024-02-19T18:38:25.212Z,40.37
2024-02-19T18:40:54.451Z,40.34
2024-02-19T18:43:22.797Z,40.28
2024-02-19T18:45:50.565Z,40.12
2024-02-19T18:48:18.417Z,40.04
2024-02-19T18:50:46.118Z,39.97
2024-02-19T18:53:13.842Z,40.12
2024-02-19T18:55:41.706Z,40.25
2024-02-19T18:58:09.412Z,40.25
2024-02-19T19:00:37.292Z,40.36
2024-02-19T19:03:05.272Z,40.70
2024-02-19T19:05:35.991Z,40.86
2024-02-19T19:20:11.536Z,41.63
2024-02-19T19:22:39.471Z,40.92
2024-02-19T19:25:08.112Z,41.19
2024-02-19T19:27:35.898Z,41.29
2024-02-19T19:30:04.024Z,41.35
2024-02-19T19:32:36.383Z,41.53
2024-02-19T19:35:04.984Z,41.72
2024-02-19T19:37:33.020Z,41.98
2024-02-19T19:40:02.444Z,42.14
2024-02-19T19:42:30.993Z,42.43
2024-02-19T19:44:58.642Z,42.70
2024-02-19T19:47:26.290Z,42.85
2024-02-19T19:49:54.052Z,42.97
2024-02-19T19:52:21.864Z,42.99
2024-02-19T19:54:49.649Z,43.23
2024-02-19T19:57:17.288Z,43.51
2024-02-19T19:59:49.891Z,43.73
2024-02-19T20:02:18.578Z,43.98
2024-02-19T20:04:50.282Z,44.17
2024-02-19T20:07:18.041Z,44.45
2024-02-19T20:09:47.379Z,44.66
2024-02-19T20:12:15.376Z,44.76
2024-02-19T20:14:43.092Z,44.93
2024-02-19T20:17:10.744Z,45.12
2024-02-19T20:19:38.501Z,45.44
2024-02-19T20:22:06.338Z,45.65
2024-02-19T20:24:34.003Z,45.82
2024-02-19T20:27:02.476Z,45.93
2024-02-19T20:29:30.184Z,46.25
2024-02-19T20:32:02.972Z,46.34
2024-02-19T20:34:31.278Z,46.48
2024-02-19T20:36:59.068Z,46.56
2024-02-19T20:39:26.768Z,46.58
2024-02-19T20:41:54.542Z,46.79
2024-02-19T20:44:22.308Z,46.89
2024-02-19T20:46:50.066Z,46.93
2024-02-19T20:49:17.869Z,46.93
2024-02-19T20:51:46.389Z,46.86
2024-02-19T20:54:14.394Z,46.83
2024-02-19T20:56:44.879Z,46.83
2024-02-19T20:59:12.625Z,46.73
2024-02-19T21:01:42.589Z,46.65
2024-02-19T21:04:10.717Z,46.72
2024-02-19T21:06:38.486Z,46.65
2024-02-19T21:09:07.223Z,46.61
2024-02-19T21:11:34.911Z,46.69
2024-02-19T21:14:04.225Z,46.75
2024-02-19T21:16:32.139Z,46.68
2024-02-19T21:19:00.847Z,46.72
2024-02-19T21:21:34.554Z,46.80
2024-02-19T21:24:04.018Z,46.85
2024-02-19T21:26:32.425Z,47.00
2024-02-19T21:29:00.292Z,47.00
2024-02-19T21:31:28.411Z,46.99
2024-02-19T21:33:56.418Z,47.04
2024-02-19T21:36:24.129Z,47.14
2024-02-19T21:38:51.870Z,47.27
2024-02-19T21:41:20.251Z,47.37
2024-02-19T21:43:47.805Z,47.31
2024-02-19T21:46:15.469Z,47.39
2024-02-19T21:48:43.976Z,47.54
2024-02-19T21:51:12.117Z,47.59
2024-02-19T21:53:39.783Z,47.72
2024-02-19T21:56:07.988Z,47.81
2024-02-19T21:58:35.593Z,47.85
2024-02-19T22:01:03.375Z,47.91
2024-02-19T22:03:32.290Z,47.81
2024-02-19T22:05:59.970Z,47.87
2024-02-19T22:08:27.954Z,47.88
2024-02-19T22:10:55.543Z,48.13
2024-02-19T22:13:23.372Z,48.24
2024-02-19T22:15:55.542Z,48.38
2024-02-19T22:18:25.708Z,48.40
2024-02-19T22:20:53.796Z,48.49
2024-02-19T22:23:21.458Z,48.50
2024-02-19T22:25:49.619Z,48.50
2024-02-19T22:28:17.547Z,48.56
2024-02-19T22:30:45.375Z,48.60
2024-02-19T22:33:13.191Z,48.60
2024-02-19T22:35:41.049Z,48.71
2024-02-19T22:38:08.869Z,48.77
2024-02-19T22:40:36.602Z,48.70
2024-02-19T22:43:10.657Z,48.76
2024-02-19T22:45:38.790Z,48.81
2024-02-19T22:48:07.085Z,48.95
2024-02-19T22:50:35.801Z,48.92
2024-02-19T22:53:04.371Z,49.10
2024-02-19T22:55:32.402Z,49.15
2024-02-19T22:58:00.434Z,49.23
2024-02-19T23:00:29.100Z,49.28
2024-02-19T23:02:56.906Z,49.26
2024-02-19T23:05:25.551Z,49.26
2024-02-19T23:07:55.226Z,49.19
2024-02-19T23:10:23.471Z,49.21
2024-02-19T23:12:51.841Z,49.14
2024-02-19T23:15:20.297Z,49.24
2024-02-19T23:17:47.855Z,49.21
2024-02-19T23:20:16.046Z,49.15
2024-02-19T23:22:47.366Z,49.24
2024-02-19T23:25:15.354Z,49.34
2024-02-19T23:27:43.010Z,49.32
2024-02-19T23:30:11.744Z,49.39
2024-02-19T23:32:39.580Z,49.53
2024-02-19T23:35:08.467Z,49.69
2024-02-19T23:37:36.965Z,49.65
2024-02-19T23:40:16.226Z,49.54
2024-02-19T23:42:47.369Z,49.74
2024-02-19T23:45:15.126Z,49.80
2024-02-19T23:47:43.169Z,49.84
2024-02-19T23:50:11.274Z,49.87
2024-02-19T23:52:41.141Z,50.04
2024-02-19T23:55:10.623Z,50.09
2024-02-19T23:57:41.253Z,50.09
